WESTPORT MEDIA Westport In The Media

Enter your "Place, State", US Zip Code or ICAO:  

Cozumel Civ / Mil, Mexico

 Lat: 20.53N, Lon: 86.93W
ICAO Used: MMCZ
Current Conditions
Updated: 8:46 PM GMT-6 SAT NOV 22 2014
Sun & Moon Information
Partly Cloudy
Partly Cloudy
Temp: 21°C
Humidity: 100%
Wind Speed: CALM
Barometer: 1014 mb
Dewpoint: 21°C
Heat Index: 21°C
Wind Chill: 21°C
Civil Twilight: 5:37 AM GMT-6 Moon Phase:
Waxing Crescent Moon
Sunrise: 6:00 AM GMT-6
Sunset: 5:05 PM GMT-6
Civil Twilight: 5:29 PM GMT-6
Forecast for Cozumel Civ / Mil, Mexico:
(Forecast based on TAF for )
0000 AM GMT-6 SUN NOV 23 2014
  
OVERNIGHT MORNING AFTERNOON EVENING OVERNIGHT
Partly
Cloudy
Partly
Cloudy
Partly
Cloudy
Partly
Cloudy
Partly
Cloudy
ZoneCast:
Dated: 0000 AM GMT-6 SUN NOV 23 2014
Overnight...Turning partly cloudy with winds from the southeast at 6 mph.

Morning...Partly cloudy with winds from the southeast at 6 mph.

Afternoon...Partly cloudy with winds from the southeast at 6 mph.

Evening...Partly cloudy with winds from the southeast at 6 mph.

Overnight...Partly cloudy with winds from the southeast at 6 mph.

Original Encoded TAF:
Dated: 0000 AM GMT-6 SUN NOV 23 2014
TAF MMCZ 222306Z 2300/2406 13005KT P6SM SCT015 SCT300 
     FM230600 13005KT P6SM SCT300 
     FM231200 13005KT P6SM SCT015 SCT300 
     TEMPO 2320/2324 BKN015 
     FM240300 13012KT P6SM SCT020